Terminal Aerodrome Forecast
Issued by NWS

Home | Current Version | Previous Version | Text Only | Print | Product List | Glossary On
Versions: 1 2 3 4 5 6 7 8 9 10 11 12 13 14 15 16 17 18 19 20 21
000
FTUS46 KOTX 180535
TAFMWH
TAF
KMWH 180535Z 1806/1906 00000KT 3SM -FZRA BR FEW009 OVC040
     FM180800 00000KT 3SM -FZRA BR BKN010 OVC025
     FM182100 09006KT P6SM VCSH SCT008 BKN015 OVC080=

USA.gov is the U.S. government's official web portal to all federal, state and local government web resources and services.